Time;durP1;ratioP1;P1;durP2;ratioP2;P2;SDS_P1;SDS_P2;PMS_P1;PMS_P2;Temp;Humidity;BMP_temperature;BMP_pressure;BME280_temperature;BME280_humidity;BME280_pressure;Samples;Min_cycle;Max_cycle;Signal;HPM_P1;HPM_P2
2023/01/09 00:00:24;;;;;;;4.82;0.80;;;7.60;99.90;;;;;;4985894;28;20660;-80
2023/01/09 00:02:50;;;;;;;1.48;0.65;;;7.50;99.90;;;;;;4998752;28;20033;-80
2023/01/09 00:05:17;;;;;;;7.30;0.80;;;7.60;99.90;;;;;;5003764;28;20034;-79
2023/01/09 00:07:43;;;;;;;5.10;1.10;;;7.60;99.90;;;;;;4986281;28;20029;-80
2023/01/09 00:10:10;;;;;;;3.17;0.40;;;7.60;99.90;;;;;;5004249;28;20038;-81
2023/01/09 00:12:36;;;;;;;3.20;0.57;;;7.60;99.90;;;;;;4985781;28;20436;-80
2023/01/09 00:15:03;;;;;;;4.68;0.77;;;7.60;99.90;;;;;;4986423;28;20037;-79
2023/01/09 00:17:29;;;;;;;3.03;0.43;;;7.60;99.90;;;;;;4994105;28;20110;-81
2023/01/09 00:19:54;;;;;;;2.47;0.43;;;7.60;99.90;;;;;;5004290;28;20092;-80
2023/01/09 00:22:20;;;;;;;2.15;0.50;;;7.60;99.90;;;;;;5005011;28;20354;-80
2023/01/09 00:24:47;;;;;;;2.58;0.30;;;7.60;99.90;;;;;;5002883;28;20044;-80
2023/01/09 00:27:13;;;;;;;2.72;0.30;;;7.60;99.90;;;;;;4985508;28;20337;-80
2023/01/09 00:29:40;;;;;;;2.65;0.40;;;7.60;99.90;;;;;;4986165;28;20042;-80
2023/01/09 00:32:09;;;;;;;1.77;0.50;;;7.60;99.90;;;;;;5010264;28;20175;-80
2023/01/09 00:34:36;;;;;;;1.63;0.57;;;7.50;99.90;;;;;;4980424;28;20034;-81
2023/01/09 00:37:02;;;;;;;1.65;0.40;;;7.60;99.90;;;;;;4989593;28;20052;-80
2023/01/09 00:39:28;;;;;;;1.38;0.30;;;7.60;99.90;;;;;;5006110;28;20047;-80
2023/01/09 00:41:55;;;;;;;1.85;0.40;;;7.50;99.90;;;;;;5012659;28;20029;-79
2023/01/09 00:44:34;;;;;;;3.05;0.40;;;7.50;99.90;;;;;;5004709;28;20025;-80
2023/01/09 00:47:11;;;;;;;1.23;0.30;;;7.50;99.90;;;;;;4986148;28;20548;-80
2023/01/09 00:49:37;;;;;;;4.55;0.57;;;7.40;99.90;;;;;;4989974;28;20140;-80
2023/01/09 00:52:05;;;;;;;0.75;0.43;;;7.40;99.90;;;;;;4985023;28;20580;-79
2023/01/09 00:54:31;;;;;;;0.77;0.40;;;7.40;99.90;;;;;;4985311;28;20061;-80
2023/01/09 00:56:58;;;;;;;3.03;0.40;;;7.40;99.90;;;;;;5003704;28;20033;-80
2023/01/09 00:59:25;;;;;;;2.22;0.50;;;7.40;99.90;;;;;;4986037;28;20061;-80
2023/01/09 01:01:51;;;;;;;5.70;0.47;;;7.30;99.90;;;;;;4984582;28;20168;-79
2023/01/09 01:09:44;;;;;;;2.42;0.47;;;7.40;99.90;;;;;;4986702;28;20381;-80
2023/01/09 01:12:10;;;;;;;4.30;0.73;;;7.40;99.90;;;;;;4985318;28;20026;-79
2023/01/09 01:14:37;;;;;;;3.08;0.57;;;7.40;99.90;;;;;;4984592;28;20207;-79
2023/01/09 01:17:03;;;;;;;1.65;0.52;;;7.40;99.90;;;;;;4990752;28;20418;-80
2023/01/09 01:19:29;;;;;;;2.60;0.47;;;7.40;99.90;;;;;;4966132;28;20041;-80
2023/01/09 01:21:56;;;;;;;2.88;0.40;;;7.40;99.90;;;;;;4995736;28;20035;-79
2023/01/09 01:24:22;;;;;;;2.10;0.32;;;7.40;99.90;;;;;;4984499;28;20321;-79
2023/01/09 01:26:47;;;;;;;2.20;0.30;;;7.40;99.90;;;;;;4998902;28;20405;-80
2023/01/09 01:29:13;;;;;;;3.55;0.60;;;7.30;99.90;;;;;;4977571;28;20438;-79
2023/01/09 01:31:39;;;;;;;2.20;0.40;;;7.30;99.90;;;;;;4984186;28;20041;-79
2023/01/09 01:34:04;;;;;;;1.90;0.50;;;7.30;99.90;;;;;;4985416;28;20374;-79
2023/01/09 01:36:30;;;;;;;4.18;0.40;;;7.30;99.90;;;;;;5003713;28;20026;-79
2023/01/09 01:38:56;;;;;;;1.67;0.50;;;7.30;99.90;;;;;;4989022;28;20065;-79
2023/01/09 01:41:31;;;;;;;2.63;0.50;;;7.30;99.90;;;;;;4989583;28;20034;-79
2023/01/09 01:44:00;;;;;;;2.58;0.40;;;7.30;99.90;;;;;;4989307;28;20040;-79
2023/01/09 01:46:28;;;;;;;2.15;0.45;;;7.30;99.90;;;;;;5006947;28;20420;-80
2023/01/09 01:49:03;;;;;;;3.60;0.50;;;7.10;99.90;;;;;;4984864;28;20034;-79
2023/01/09 01:51:31;;;;;;;3.33;0.50;;;6.90;99.90;;;;;;4996454;28;20044;-79
2023/01/09 01:54:02;;;;;;;3.95;0.57;;;6.80;99.90;;;;;;4987251;28;20433;-79
2023/01/09 01:56:42;;;;;;;2.00;0.52;;;6.70;99.90;;;;;;4989124;28;20030;-79
2023/01/09 01:59:17;;;;;;;2.97;0.60;;;6.60;99.90;;;;;;4988620;28;20578;-80
2023/01/09 02:01:47;;;;;;;1.60;0.50;;;6.50;99.90;;;;;;5013126;28;20381;-79
2023/01/09 02:04:12;;;;;;;1.75;0.52;;;6.40;99.90;;;;;;5012482;28;20038;-80
2023/01/09 02:06:38;;;;;;;1.17;0.50;;;6.30;99.90;;;;;;4990606;28;20076;-79
2023/01/09 02:09:05;;;;;;;3.92;0.50;;;6.20;99.90;;;;;;4987995;28;20037;-80
2023/01/09 02:11:32;;;;;;;4.55;0.70;;;6.20;99.90;;;;;;5006062;28;20038;-79
2023/01/09 02:13:59;;;;;;;1.30;0.82;;;6.10;99.90;;;;;;4986505;28;20102;-80
2023/01/09 02:16:52;;;;;;;1.73;0.40;;;6.10;99.90;;;;;;4998987;28;20030;-79
2023/01/09 02:19:48;;;;;;;5.30;0.95;;;6.10;99.90;;;;;;4992004;28;20656;-80
2023/01/09 02:22:43;;;;;;;3.47;0.80;;;6.00;99.90;;;;;;4986678;28;20379;-79
2023/01/09 02:25:37;;;;;;;4.50;0.80;;;5.90;99.90;;;;;;4981116;28;20018;-81
2023/01/09 02:28:14;;;;;;;2.78;0.70;;;5.90;99.90;;;;;;5006973;28;20128;-79
2023/01/09 02:30:47;;;;;;;5.63;1.25;;;5.80;99.90;;;;;;4980006;28;20030;-80
2023/01/09 02:33:27;;;;;;;3.10;0.82;;;5.80;99.90;;;;;;4998032;28;20026;-79
2023/01/09 02:36:17;;;;;;;3.70;0.90;;;5.70;99.90;;;;;;4984180;28;20038;-80
2023/01/09 02:39:16;;;;;;;4.28;1.00;;;5.70;99.90;;;;;;5004768;28;20026;-80
2023/01/09 02:42:07;;;;;;;6.70;1.05;;;5.60;99.90;;;;;;5002764;28;20125;-79
2023/01/09 02:44:35;;;;;;;5.88;0.90;;;5.60;99.90;;;;;;5004602;28;20026;-80
2023/01/09 02:47:14;;;;;;;2.72;0.90;;;5.50;99.90;;;;;;5004361;28;20461;-80
2023/01/09 02:49:54;;;;;;;6.60;0.90;;;5.50;99.90;;;;;;4988282;28;20069;-79
2023/01/09 02:52:32;;;;;;;10.40;1.27;;;5.50;99.90;;;;;;4990503;28;20111;-80
2023/01/09 02:55:12;;;;;;;4.15;1.73;;;5.50;99.90;;;;;;5000142;28;20033;-79
2023/01/09 02:57:53;;;;;;;6.97;1.00;;;5.50;99.90;;;;;;5011142;28;20030;-79
2023/01/09 03:00:29;;;;;;;6.25;1.10;;;5.50;99.90;;;;;;5002632;28;20045;-79
2023/01/09 03:03:16;;;;;;;5.65;0.70;;;5.50;99.90;;;;;;4980626;28;20053;-79
2023/01/09 03:05:57;;;;;;;7.32;1.20;;;5.50;99.90;;;;;;5015245;28;20033;-79
2023/01/09 03:08:30;;;;;;;7.57;1.40;;;5.50;99.90;;;;;;5004014;28;20565;-80
2023/01/09 03:11:03;;;;;;;8.25;1.30;;;5.50;99.90;;;;;;5002390;28;20042;-80
2023/01/09 03:13:35;;;;;;;3.88;0.95;;;5.50;99.90;;;;;;4988925;28;20021;-80
2023/01/09 03:16:05;;;;;;;8.80;0.95;;;5.50;99.90;;;;;;5007122;28;20366;-79
2023/01/09 03:18:33;;;;;;;7.50;1.10;;;5.40;99.90;;;;;;4985563;28;20548;-79
2023/01/09 03:20:59;;;;;;;3.40;1.10;;;5.40;99.90;;;;;;4986659;28;20030;-79
2023/01/09 03:23:24;;;;;;;5.65;1.35;;;5.40;99.90;;;;;;4982890;28;20030;-79
2023/01/09 03:25:50;;;;;;;6.10;1.00;;;5.40;99.90;;;;;;4989842;28;20096;-80
2023/01/09 03:28:27;;;;;;;4.28;0.73;;;5.40;99.90;;;;;;4997071;28;20084;-80
2023/01/09 03:30:52;;;;;;;11.25;1.65;;;5.50;99.90;;;;;;4985015;28;20066;-80
2023/01/09 03:33:19;;;;;;;14.77;1.73;;;5.50;99.90;;;;;;4981646;28;20061;-79
2023/01/09 03:35:44;;;;;;;10.00;1.13;;;5.40;99.90;;;;;;4984583;28;20061;-79
2023/01/09 03:38:10;;;;;;;8.02;1.13;;;5.40;99.90;;;;;;4995655;28;20500;-80
2023/01/09 03:40:36;;;;;;;6.93;1.50;;;5.40;99.90;;;;;;5002261;28;20038;-80
2023/01/09 03:43:01;;;;;;;6.80;1.05;;;5.40;99.90;;;;;;5002847;28;20501;-79
2023/01/09 03:45:27;;;;;;;6.78;1.20;;;5.40;99.90;;;;;;5003155;28;20037;-79
2023/01/09 03:47:53;;;;;;;7.80;1.20;;;5.40;99.90;;;;;;5005145;28;20026;-79
2023/01/09 03:50:19;;;;;;;7.07;0.85;;;5.40;99.90;;;;;;5007502;28;20946;-80
2023/01/09 03:52:44;;;;;;;7.72;0.68;;;5.40;99.90;;;;;;4994531;28;20033;-80
2023/01/09 03:55:10;;;;;;;8.40;1.23;;;5.40;99.90;;;;;;5024783;28;20083;-80
2023/01/09 03:57:36;;;;;;;3.38;1.00;;;5.40;99.90;;;;;;5019129;28;20052;-79
2023/01/09 04:00:02;;;;;;;3.88;1.00;;;5.30;99.90;;;;;;5002415;28;20033;-80
2023/01/09 04:02:27;;;;;;;1.80;0.70;;;5.30;99.90;;;;;;4985964;28;20044;-80
2023/01/09 04:04:53;;;;;;;2.20;0.73;;;5.30;99.90;;;;;;5004549;28;20312;-79
2023/01/09 04:07:19;;;;;;;4.50;1.02;;;5.40;99.90;;;;;;5004301;28;20025;-80
2023/01/09 04:09:44;;;;;;;4.30;1.00;;;5.30;99.90;;;;;;4999515;28;20100;-79
2023/01/09 04:12:10;;;;;;;5.03;1.25;;;5.30;99.90;;;;;;5006220;28;20037;-79
2023/01/09 04:14:35;;;;;;;5.57;1.00;;;5.40;99.90;;;;;;5003796;28;20134;-79
2023/01/09 04:17:01;;;;;;;5.10;0.95;;;5.40;99.90;;;;;;5003456;28;20128;-79
2023/01/09 04:19:27;;;;;;;7.78;0.82;;;5.40;99.90;;;;;;5004727;28;20095;-79
2023/01/09 04:21:52;;;;;;;9.40;1.15;;;5.50;99.90;;;;;;4984323;28;20092;-79
2023/01/09 04:24:18;;;;;;;8.40;1.50;;;5.60;99.90;;;;;;5004301;28;20105;-79
2023/01/09 04:26:43;;;;;;;5.13;1.17;;;5.60;99.90;;;;;;4985771;28;20399;-79
2023/01/09 04:29:09;;;;;;;6.50;1.35;;;5.60;99.90;;;;;;4995128;28;20027;-79
2023/01/09 04:31:34;;;;;;;9.38;1.13;;;5.60;99.90;;;;;;4983265;28;20034;-78
2023/01/09 04:34:00;;;;;;;6.88;1.05;;;5.70;99.90;;;;;;4985860;28;20102;-80
2023/01/09 04:36:25;;;;;;;5.65;1.08;;;5.70;99.90;;;;;;4986009;28;20389;-79
2023/01/09 04:38:51;;;;;;;6.78;1.08;;;5.70;99.90;;;;;;5003207;28;20128;-79
2023/01/09 04:41:47;;;;;;;8.00;1.05;;;5.70;99.90;;;;;;5010937;28;20034;-79
2023/01/09 04:44:02;;;;;;;7.85;1.20;;;5.70;99.90;;;;;;5000038;28;20440;-80
2023/01/09 04:46:28;;;;;;;6.50;0.90;;;5.70;99.90;;;;;;4998965;28;20030;-79
2023/01/09 04:48:53;;;;;;;10.48;1.23;;;5.70;99.90;;;;;;4987114;28;20109;-80
2023/01/09 04:51:19;;;;;;;4.68;0.80;;;5.80;99.90;;;;;;4985852;28;20056;-80
2023/01/09 04:53:45;;;;;;;5.45;1.17;;;5.80;99.90;;;;;;4986806;28;20401;-79
2023/01/09 04:56:10;;;;;;;6.50;0.80;;;5.70;99.90;;;;;;4984230;28;20532;-80
2023/01/09 04:58:36;;;;;;;5.45;1.15;;;5.70;99.90;;;;;;5003171;28;20072;-79
2023/01/09 05:01:01;;;;;;;6.30;1.30;;;5.70;99.90;;;;;;4987177;28;20540;-79
2023/01/09 05:03:27;;;;;;;4.45;1.30;;;5.70;99.90;;;;;;4981281;28;20038;-79
2023/01/09 05:05:53;;;;;;;8.50;1.38;;;5.70;99.90;;;;;;4992778;28;20040;-80
2023/01/09 05:08:18;;;;;;;5.68;0.80;;;5.60;99.90;;;;;;5002808;28;20053;-79
2023/01/09 05:10:44;;;;;;;3.42;0.88;;;5.60;99.90;;;;;;4984171;28;20092;-80
2023/01/09 05:13:09;;;;;;;7.60;0.93;;;5.60;99.90;;;;;;4985599;28;20634;-79
2023/01/09 05:15:35;;;;;;;7.45;0.98;;;5.70;99.90;;;;;;5020261;28;20069;-77
2023/01/09 05:18:00;;;;;;;6.95;0.90;;;5.60;99.90;;;;;;5001600;28;20042;-79
2023/01/09 05:20:26;;;;;;;10.10;1.27;;;5.70;99.90;;;;;;4984091;28;20076;-79
2023/01/09 05:22:52;;;;;;;8.45;1.10;;;5.70;99.90;;;;;;4979269;28;20046;-79
2023/01/09 05:25:17;;;;;;;4.35;0.80;;;5.70;99.90;;;;;;4982255;28;20030;-80
2023/01/09 05:27:45;;;;;;;12.82;1.40;;;5.80;99.90;;;;;;4984277;28;20116;-80
2023/01/09 05:30:11;;;;;;;6.18;1.10;;;5.80;99.90;;;;;;4983824;28;20050;-79
2023/01/09 05:32:37;;;;;;;14.60;1.27;;;5.90;99.90;;;;;;4981968;28;20030;-79
2023/01/09 05:35:03;;;;;;;7.25;1.13;;;5.90;99.90;;;;;;4966493;28;20053;-79
2023/01/09 05:37:28;;;;;;;10.43;1.40;;;5.90;99.90;;;;;;4982667;28;20044;-80
2023/01/09 05:39:54;;;;;;;6.35;1.00;;;5.90;99.90;;;;;;4978261;28;20282;-79
2023/01/09 05:42:20;;;;;;;7.00;1.05;;;5.90;99.90;;;;;;5001611;28;20491;-79
2023/01/09 05:44:45;;;;;;;6.30;1.20;;;5.90;99.90;;;;;;4988582;28;20131;-80
2023/01/09 05:47:11;;;;;;;5.75;1.42;;;5.80;99.90;;;;;;5018198;28;20026;-79
2023/01/09 05:49:36;;;;;;;9.23;1.38;;;5.90;99.90;;;;;;4996646;28;21822;-80
2023/01/09 05:52:03;;;;;;;6.13;1.25;;;5.90;99.90;;;;;;5000588;28;20038;-79
2023/01/09 05:54:29;;;;;;;6.15;1.30;;;5.90;99.90;;;;;;5003227;28;20084;-79
2023/01/09 05:56:55;;;;;;;8.57;1.45;;;5.80;99.90;;;;;;4977478;28;20437;-80
2023/01/09 05:59:20;;;;;;;7.22;1.27;;;5.80;99.90;;;;;;4994387;28;20109;-79
2023/01/09 06:01:46;;;;;;;4.10;1.15;;;5.90;99.90;;;;;;4968614;28;20046;-78
2023/01/09 06:04:11;;;;;;;6.68;0.73;;;5.90;99.90;;;;;;4981562;28;20034;-79
2023/01/09 06:06:38;;;;;;;7.53;1.08;;;5.90;99.90;;;;;;4980470;28;20069;-79
2023/01/09 06:09:04;;;;;;;10.10;1.33;;;5.90;99.90;;;;;;4982914;28;20026;-79
2023/01/09 06:11:29;;;;;;;8.65;1.05;;;5.90;99.90;;;;;;4981122;28;20564;-79
2023/01/09 06:13:55;;;;;;;7.53;1.20;;;5.90;99.90;;;;;;4962108;28;20030;-80
2023/01/09 06:16:21;;;;;;;4.38;0.88;;;6.00;99.90;;;;;;4965163;28;20042;-79
2023/01/09 06:18:46;;;;;;;6.82;0.88;;;6.00;99.90;;;;;;4965868;28;20033;-79
2023/01/09 06:21:12;;;;;;;9.52;1.05;;;6.00;99.90;;;;;;4982573;28;20138;-79
2023/01/09 06:23:38;;;;;;;7.07;1.58;;;6.00;99.90;;;;;;4966506;28;20065;-78
2023/01/09 06:26:03;;;;;;;5.30;1.40;;;6.00;99.90;;;;;;4971248;28;20045;-79
2023/01/09 06:28:29;;;;;;;6.03;0.80;;;6.10;99.90;;;;;;4969427;28;20034;-79
2023/01/09 06:30:54;;;;;;;2.78;1.00;;;6.00;99.90;;;;;;4984525;28;20211;-80
2023/01/09 06:33:20;;;;;;;7.63;1.05;;;6.00;99.90;;;;;;4968181;28;20034;-79
2023/01/09 06:35:45;;;;;;;5.13;0.75;;;6.10;99.90;;;;;;4968294;28;20478;-80
2023/01/09 06:38:11;;;;;;;7.72;0.80;;;6.00;99.90;;;;;;4985622;28;20034;-80
2023/01/09 06:40:37;;;;;;;6.50;0.90;;;6.00;99.90;;;;;;4985784;28;20030;-80
2023/01/09 06:43:02;;;;;;;5.05;1.27;;;5.90;99.90;;;;;;4968213;28;20105;-80
2023/01/09 06:45:28;;;;;;;7.70;1.17;;;5.90;99.90;;;;;;4964897;28;20023;-79
2023/01/09 06:47:54;;;;;;;4.45;0.90;;;5.90;99.90;;;;;;4985346;28;20072;-79
2023/01/09 06:50:19;;;;;;;6.80;1.25;;;5.90;99.90;;;;;;4968073;28;20034;-79
2023/01/09 06:52:45;;;;;;;5.25;0.90;;;5.90;99.90;;;;;;4968541;28;20038;-79
2023/01/09 06:55:11;;;;;;;2.50;0.60;;;5.90;99.90;;;;;;4985512;28;20041;-80
2023/01/09 06:57:36;;;;;;;5.40;0.88;;;6.00;99.90;;;;;;4967876;28;20035;-80
2023/01/09 07:00:03;;;;;;;6.53;1.17;;;6.00;99.90;;;;;;4967568;28;20040;-79
2023/01/09 07:02:28;;;;;;;4.28;1.05;;;6.00;99.90;;;;;;5024929;28;20029;-79
2023/01/09 07:04:54;;;;;;;8.20;1.23;;;6.10;99.90;;;;;;5011159;28;20464;-79
2023/01/09 07:07:21;;;;;;;38.67;18.05;;;6.10;99.90;;;;;;4999399;28;20030;-80
2023/01/09 07:09:47;;;;;;;9.82;3.38;;;6.10;99.90;;;;;;5000496;28;20026;-79
2023/01/09 07:12:14;;;;;;;3.38;0.98;;;6.10;99.90;;;;;;5001695;28;20464;-80
2023/01/09 07:14:39;;;;;;;5.28;1.42;;;6.20;99.90;;;;;;4985837;28;20056;-80
2023/01/09 07:17:05;;;;;;;5.47;1.13;;;6.10;99.90;;;;;;5010786;28;20025;-80
2023/01/09 07:19:31;;;;;;;5.97;1.25;;;6.10;99.90;;;;;;4993334;28;20112;-80
2023/01/09 07:21:57;;;;;;;3.40;0.80;;;6.00;99.90;;;;;;4997404;28;20184;-80
2023/01/09 07:24:22;;;;;;;8.98;1.00;;;6.00;99.90;;;;;;4989906;28;20388;-80
2023/01/09 07:26:48;;;;;;;7.25;1.38;;;6.00;99.90;;;;;;4993419;28;20056;-80
2023/01/09 07:29:13;;;;;;;4.05;1.58;;;5.90;99.90;;;;;;4990144;28;20509;-80
2023/01/09 07:31:39;;;;;;;5.28;1.13;;;5.90;99.90;;;;;;4977004;28;20065;-81
2023/01/09 07:34:05;;;;;;;4.82;1.00;;;5.80;99.90;;;;;;4984727;28;20049;-80
2023/01/09 07:36:30;;;;;;;7.22;0.93;;;5.70;99.90;;;;;;4991053;28;20022;-80
2023/01/09 07:38:56;;;;;;;4.32;1.10;;;5.60;99.90;;;;;;4992792;28;20065;-80
2023/01/09 07:41:21;;;;;;;10.25;1.42;;;5.60;99.90;;;;;;4983616;28;20030;-80
2023/01/09 07:43:47;;;;;;;10.20;1.45;;;5.60;99.90;;;;;;4983749;28;20385;-80
2023/01/09 07:46:12;;;;;;;3.10;1.00;;;5.50;99.90;;;;;;4986511;28;20026;-80
2023/01/09 07:48:38;;;;;;;8.48;1.10;;;5.40;99.90;;;;;;5001561;28;20092;-79
2023/01/09 07:51:05;;;;;;;8.13;1.40;;;5.40;99.90;;;;;;5003759;28;20178;-80
2023/01/09 07:53:30;;;;;;;33.47;12.60;;;5.30;99.90;;;;;;3952732;28;10001101;-80
2023/01/09 07:55:56;;;;;;;21.83;7.53;;;5.30;99.90;;;;;;4999007;28;20081;-79
2023/01/09 07:58:22;;;;;;;7.07;1.95;;;5.30;99.90;;;;;;4993737;28;20095;-80
2023/01/09 08:00:49;;;;;;;9.55;1.30;;;5.20;99.90;;;;;;4993610;28;20500;-80
2023/01/09 08:03:15;;;;;;;7.25;1.27;;;5.10;99.90;;;;;;4992931;28;20026;-80
2023/01/09 08:05:40;;;;;;;7.63;0.98;;;5.10;99.90;;;;;;5001013;28;20484;-80
2023/01/09 08:08:06;;;;;;;3.25;0.85;;;5.00;99.90;;;;;;5002199;28;20105;-80
2023/01/09 08:10:32;;;;;;;7.75;1.05;;;5.00;99.90;;;;;;4981591;28;20045;-80
2023/01/09 08:12:57;;;;;;;9.85;1.08;;;5.00;99.90;;;;;;5000079;28;20029;-80
2023/01/09 08:15:23;;;;;;;10.80;1.08;;;4.90;99.90;;;;;;4985893;28;20516;-80
2023/01/09 08:17:48;;;;;;;7.78;1.38;;;4.90;99.90;;;;;;5001614;28;20057;-80
2023/01/09 08:20:16;;;;;;;7.32;1.30;;;5.00;99.90;;;;;;4997648;28;20022;-80
2023/01/09 08:22:42;;;;;;;7.35;1.83;;;4.90;99.90;;;;;;4998490;28;20417;-79
2023/01/09 08:25:09;;;;;;;2.97;0.60;;;5.00;99.90;;;;;;4976036;28;20048;-80
2023/01/09 08:27:35;;;;;;;4.90;1.10;;;5.00;99.90;;;;;;4983275;28;20452;-80
2023/01/09 08:30:00;;;;;;;4.25;0.77;;;5.00;99.90;;;;;;4983851;28;20045;-80
2023/01/09 08:32:26;;;;;;;7.78;1.08;;;5.00;99.90;;;;;;4984017;28;20038;-79
2023/01/09 08:34:53;;;;;;;5.22;1.00;;;5.00;99.90;;;;;;5000403;28;20042;-80
2023/01/09 08:37:18;;;;;;;8.82;1.52;;;5.10;99.90;;;;;;4983561;28;20030;-80
2023/01/09 08:39:44;;;;;;;7.47;1.25;;;5.10;99.90;;;;;;4983633;28;20272;-80
2023/01/09 08:47:38;;;;;;;5.95;0.82;;;5.20;99.90;;;;;;5001297;28;20117;-80
2023/01/09 08:50:04;;;;;;;3.88;0.85;;;5.40;99.90;;;;;;5002482;28;20086;-80
2023/01/09 08:52:29;;;;;;;4.70;0.95;;;5.80;99.90;;;;;;5001042;28;20076;-80
2023/01/09 08:54:56;;;;;;;6.30;1.15;;;6.20;99.90;;;;;;4984027;28;21558;-80
2023/01/09 08:57:21;;;;;;;8.32;1.30;;;6.60;99.90;;;;;;4992518;28;20034;-80
2023/01/09 08:59:47;;;;;;;5.57;1.17;;;6.80;99.90;;;;;;4996922;28;20453;-79
2023/01/09 09:02:12;;;;;;;3.28;0.98;;;7.10;99.90;;;;;;4979146;28;20042;-79
2023/01/09 09:04:38;;;;;;;7.78;1.45;;;7.10;99.90;;;;;;4979081;28;20827;-79
2023/01/09 09:07:04;;;;;;;6.03;1.48;;;7.30;99.90;;;;;;4992335;28;20464;-79
2023/01/09 09:09:29;;;;;;;6.28;1.23;;;7.20;99.90;;;;;;4975293;28;20065;-79
2023/01/09 09:11:55;;;;;;;7.20;0.93;;;7.30;99.90;;;;;;4987203;28;20392;-79
2023/01/09 09:17:05;;;;;;;6.40;1.30;;;7.70;99.90;;;;;;4993453;28;20125;-79
2023/01/09 09:19:30;;;;;;;5.93;1.00;;;8.10;99.90;;;;;;5003766;28;20109;-80
2023/01/09 09:21:56;;;;;;;7.80;1.20;;;8.50;99.90;;;;;;4981430;28;20049;-79
2023/01/09 09:24:21;;;;;;;9.88;1.27;;;9.20;99.90;;;;;;4982119;28;20064;-80
2023/01/09 09:26:47;;;;;;;9.38;1.23;;;9.30;99.90;;;;;;4982089;28;20037;-80
2023/01/09 09:29:13;;;;;;;7.80;1.23;;;9.20;99.90;;;;;;4996379;28;20026;-79
2023/01/09 09:31:38;;;;;;;7.18;1.58;;;9.20;99.90;;;;;;4999529;28;20038;-79
2023/01/09 09:34:05;;;;;;;3.70;0.80;;;9.20;99.90;;;;;;5002961;28;20493;-79
2023/01/09 09:36:31;;;;;;;5.53;0.80;;;9.30;99.90;;;;;;5001339;28;20087;-80
2023/01/09 09:38:56;;;;;;;6.78;1.05;;;9.40;99.90;;;;;;4980348;28;20021;-80
2023/01/09 09:45:07;;;;;;;4.93;0.80;;;9.20;99.90;;;;;;5000827;28;20045;-80
2023/01/09 09:48:01;;;;;;;8.30;1.13;;;9.00;99.90;;;;;;5003871;28;20105;-79
2023/01/09 09:50:29;;;;;;;6.00;0.80;;;9.00;99.90;;;;;;5002262;28;20037;-80
2023/01/09 09:53:05;;;;;;;8.15;0.98;;;9.30;99.90;;;;;;4980639;28;20049;-79
2023/01/09 09:55:37;;;;;;;3.65;0.88;;;9.70;99.90;;;;;;4979641;28;20030;-79
2023/01/09 09:58:29;;;;;;;;;;;9.90;99.90;;;;;;4976799;28;20052;-79
2023/01/09 10:00:56;;;;;;;;;;;9.80;99.90;;;;;;4999987;28;20018;-80
2023/01/09 10:03:38;;;;;;;7.10;1.15;;;10.30;99.90;;;;;;5005597;28;19924;-79
2023/01/09 10:06:29;;;;;;;5.63;0.70;;;10.70;99.90;;;;;;4999398;28;20041;-79
2023/01/09 10:09:05;;;;;;;10.30;1.33;;;11.10;99.90;;;;;;4987893;28;20034;-80
2023/01/09 10:11:53;;;;;;;4.53;0.80;;;11.60;93.90;;;;;;4987226;28;20086;-80
2023/01/09 10:14:19;;;;;;;3.47;0.73;;;11.40;92.40;;;;;;5003558;28;20099;-79
2023/01/09 10:17:03;;;;;;;5.78;0.98;;;11.50;96.10;;;;;;4986410;28;20738;-80
2023/01/09 10:19:49;;;;;;;5.75;1.25;;;12.10;93.30;;;;;;5004356;28;20074;-79
2023/01/09 10:22:26;;;;;;;6.45;1.13;;;12.30;88.10;;;;;;4989896;28;20353;-78
2023/01/09 10:25:11;;;;;;;8.27;1.15;;;11.70;92.50;;;;;;5002359;28;20393;-79
2023/01/09 10:27:58;;;;;;;9.65;1.17;;;11.10;97.60;;;;;;5002862;28;20510;-80
2023/01/09 10:30:35;;;;;;;6.07;1.17;;;11.10;99.00;;;;;;5001138;28;20045;-79
2023/01/09 10:33:13;;;;;;;6.68;1.15;;;10.80;99.90;;;;;;4987782;28;20034;-79
2023/01/09 10:36:30;;;;;;;4.72;0.90;;;10.50;99.90;;;;;;5000511;28;20026;-79
2023/01/09 10:39:02;;;;;;;5.47;0.73;;;10.30;99.90;;;;;;4944119;28;20123;-79
2023/01/09 10:41:36;;;;;;;7.13;1.23;;;10.10;99.90;;;;;;4957046;28;20039;-79
2023/01/09 10:44:23;;;;;;;4.25;1.08;;;10.00;99.90;;;;;;4967556;28;20641;-77
2023/01/09 10:46:53;;;;;;;4.00;0.65;;;9.80;99.90;;;;;;4984402;28;20038;-78
2023/01/09 10:49:20;;;;;;;;;;;9.90;99.90;;;;;;4306131;28;10000399;-79
2023/01/09 10:52:12;;;;;;;6.15;1.35;;;9.90;99.90;;;;;;4983226;28;20430;-79
2023/01/09 10:54:55;;;;;;;7.63;0.85;;;10.00;99.90;;;;;;5002053;28;20401;-80
2023/01/09 10:57:41;;;;;;;6.70;1.00;;;10.10;99.90;;;;;;4984164;28;20018;-80
2023/01/09 11:00:18;;;;;;;6.43;0.90;;;10.20;99.90;;;;;;4996291;28;20565;-80
2023/01/09 11:02:45;;;;;;;4.50;0.80;;;9.90;99.90;;;;;;4995868;28;20052;-80
2023/01/09 11:05:15;;;;;;;6.20;1.17;;;9.80;99.90;;;;;;5002025;28;20049;-80
2023/01/09 11:07:43;;;;;;;5.18;0.90;;;9.60;99.90;;;;;;5001275;28;20026;-80
2023/01/09 11:10:11;;;;;;;7.82;1.17;;;9.50;99.90;;;;;;5001558;28;20030;-80
2023/01/09 11:12:38;;;;;;;4.05;0.80;;;9.50;99.90;;;;;;5000263;28;20035;-77
2023/01/09 11:15:18;;;;;;;3.95;0.93;;;10.00;99.90;;;;;;4981234;28;20110;-80
2023/01/09 11:17:45;;;;;;;3.42;0.95;;;10.40;99.90;;;;;;4980606;28;20065;-79
2023/01/09 11:20:39;;;;;;;5.32;0.93;;;10.60;99.90;;;;;;4995349;28;20072;-78
2023/01/09 11:23:26;;;;;;;3.60;0.75;;;10.80;99.90;;;;;;4991972;28;20038;-80
2023/01/09 11:25:54;;;;;;;4.75;1.10;;;11.10;99.90;;;;;;5002642;28;20044;-79
2023/01/09 11:28:20;;;;;;;5.53;1.38;;;10.70;99.90;;;;;;5001109;28;20532;-80
2023/01/09 11:30:53;;;;;;;8.25;1.80;;;10.60;99.90;;;;;;5000743;28;20409;-80
2023/01/09 11:33:23;;;;;;;4.45;1.80;;;10.30;99.90;;;;;;4981258;28;20045;-80
2023/01/09 11:36:09;;;;;;;7.07;1.40;;;10.10;99.90;;;;;;4984243;28;20037;-79
2023/01/09 11:39:18;;;;;;;4.43;1.80;;;10.00;99.90;;;;;;4980430;28;20045;-79
2023/01/09 11:41:43;;;;;;;7.65;1.48;;;9.90;99.90;;;;;;4961625;28;20042;-79
2023/01/09 11:44:14;;;;;;;3.35;1.10;;;10.10;99.90;;;;;;4980656;28;20772;-80
2023/01/09 11:46:42;;;;;;;2.63;0.90;;;10.30;99.90;;;;;;4980907;28;20041;-79
2023/01/09 11:49:14;;;;;;;5.50;1.17;;;10.70;99.90;;;;;;4995492;28;20033;-78
2023/01/09 11:51:41;;;;;;;5.10;0.80;;;10.90;99.90;;;;;;4996774;28;20699;-78
2023/01/09 11:54:19;;;;;;;3.22;0.80;;;11.10;99.90;;;;;;4994344;28;20034;-81
2023/01/09 11:56:45;;;;;;;4.30;1.02;;;11.20;99.90;;;;;;4984011;28;20105;-80
2023/01/09 11:59:17;;;;;;;6.18;0.85;;;11.50;99.00;;;;;;5002022;28;20551;-80
2023/01/09 12:01:58;;;;;;;;;;;11.70;99.50;;;;;;4982185;28;20112;-79
2023/01/09 12:04:30;;;;;;;5.22;1.08;;;11.80;97.90;;;;;;4996345;28;19925;-81
2023/01/09 12:07:26;;;;;;;3.45;0.85;;;12.10;92.50;;;;;;5001757;28;20040;-81
2023/01/09 12:10:09;;;;;;;6.47;0.90;;;12.10;90.20;;;;;;5002729;28;20045;-81
2023/01/09 12:12:40;;;;;;;1.80;0.60;;;11.80;91.30;;;;;;4998457;28;20091;-81
2023/01/09 12:15:24;;;;;;;5.90;1.13;;;11.60;94.10;;;;;;5001463;28;20026;-80
2023/01/09 12:18:22;;;;;;;3.38;0.65;;;12.00;95.40;;;;;;4995042;28;20037;-80
2023/01/09 12:21:29;;;;;;;3.40;1.08;;;12.40;94.20;;;;;;4998635;28;20061;-81
2023/01/09 12:24:21;;;;;;;3.65;0.70;;;12.80;86.20;;;;;;4955174;28;20240;-80
2023/01/09 12:26:55;;;;;;;5.40;1.08;;;13.30;86.30;;;;;;4994527;28;20041;-80
2023/01/09 12:29:45;;;;;;;2.70;0.60;;;13.60;78.50;;;;;;4998993;28;20072;-80
2023/01/09 12:32:17;;;;;;;3.83;0.50;;;13.80;78.50;;;;;;5000358;28;20143;-80
2023/01/09 12:35:02;;;;;;;6.45;1.02;;;13.90;75.60;;;;;;4999712;28;20448;-81
2023/01/09 12:37:48;;;;;;;2.20;0.57;;;14.30;74.70;;;;;;4983766;28;20042;-81
2023/01/09 12:40:14;;;;;;;3.55;0.73;;;13.90;72.80;;;;;;4994925;28;20030;-80
2023/01/09 12:42:59;;;;;;;1.42;0.52;;;13.90;74.10;;;;;;5014964;28;20417;-81
2023/01/09 12:45:40;;;;;;;4.25;0.90;;;14.10;74.00;;;;;;4997994;28;22000;-81
2023/01/09 12:48:36;;;;;;;3.65;0.90;;;13.60;72.90;;;;;;5002181;28;20072;-81
2023/01/09 12:51:16;;;;;;;2.70;0.60;;;13.20;73.80;;;;;;4986478;28;20042;-81
2023/01/09 12:54:09;;;;;;;2.45;0.95;;;12.70;75.80;;;;;;4984391;28;20034;-81
2023/01/09 12:56:59;;;;;;;2.20;0.82;;;12.50;76.40;;;;;;4976111;28;20405;-80
2023/01/09 12:59:46;;;;;;;1.65;0.60;;;12.60;77.30;;;;;;5002650;28;20034;-80
2023/01/09 13:02:12;;;;;;;5.18;1.00;;;12.20;79.50;;;;;;4999661;28;20046;-81
2023/01/09 13:04:53;;;;;;;1.85;0.80;;;12.30;80.60;;;;;;4982832;28;20080;-81
2023/01/09 13:07:40;;;;;;;6.43;1.10;;;12.40;82.10;;;;;;4980374;28;20121;-81
2023/01/09 13:10:25;;;;;;;4.53;1.00;;;12.60;82.40;;;;;;5000001;28;20110;-81
2023/01/09 13:12:52;;;;;;;3.85;1.13;;;12.80;77.70;;;;;;4989791;28;20065;-81
2023/01/09 13:15:26;;;;;;;4.70;1.00;;;13.20;81.20;;;;;;4998445;28;20385;-80
2023/01/09 13:18:06;;;;;;;5.63;0.90;;;13.40;74.80;;;;;;4997222;28;20216;-81
2023/01/09 13:20:38;;;;;;;5.32;0.90;;;13.50;74.30;;;;;;4995367;28;20489;-80
2023/01/09 13:23:05;;;;;;;5.68;1.20;;;13.30;72.60;;;;;;4999606;28;20433;-80
2023/01/09 13:25:45;;;;;;;6.13;1.02;;;12.90;73.10;;;;;;4983690;28;20030;-81
2023/01/09 13:28:19;;;;;;;7.15;0.93;;;12.50;74.80;;;;;;5000600;28;20038;-81
2023/01/09 13:31:12;;;;;;;4.47;0.82;;;12.80;77.10;;;;;;4979025;28;20042;-79